Time,TemperatureF,DewpointF,PressureIn,WindDirection,WindDirectionDegrees,WindSpeedMPH,WindSpeedGustMPH,Humidity,HourlyPrecipIn,Conditions,Clouds,dailyrainin,SoftwareType,DateUTC
2013-03-14 00:00:00,27.0,21.1,30.16,NW,304,4.0,-999.0,78,0.00,,,0.01,Wunderground v.1.15,2013-03-14 04:00:00,
2013-03-14 00:01:00,27.0,21.1,30.16,WNW,293,4.0,-999.0,78,0.00,,,0.00,Wunderground v.1.15,2013-03-14 04:01:00,
2013-03-14 00:02:00,27.0,21.1,30.16,West,280,5.0,-999.0,78,0.00,,,0.00,Wunderground v.1.15,2013-03-14 04:02:00,
2013-03-14 00:04:00,27.0,21.1,30.16,WNW,301,5.0,-999.0,78,0.00,,,0.00,Wunderground v.1.15,2013-03-14 04:04:00,
2013-03-14 00:10:00,26.9,20.7,30.16,WNW,288,5.0,-999.0,77,0.00,,,0.00,Wunderground v.1.15,2013-03-14 04:10:00,
2013-03-14 00:16:00,26.8,20.6,30.16,WNW,284,6.0,-999.0,77,0.00,,,0.00,Wunderground v.1.15,2013-03-14 04:16:00,
2013-03-14 00:21:00,26.6,20.4,30.16,WNW,300,4.0,-999.0,77,0.00,,,0.00,Wunderground v.1.15,2013-03-14 04:21:00,
2013-03-14 00:27:00,26.4,20.5,30.16,WNW,295,5.0,-999.0,78,0.00,,,0.00,Wunderground v.1.15,2013-03-14 04:27:00,
2013-03-14 00:32:00,26.4,20.5,30.17,WNW,298,6.0,-999.0,78,0.00,,,0.00,Wunderground v.1.15,2013-03-14 04:32:00,
2013-03-14 00:38:00,26.3,20.4,30.17,WNW,285,5.0,-999.0,78,0.00,,,0.00,Wunderground v.1.15,2013-03-14 04:38:00,
2013-03-14 00:44:00,26.3,20.1,30.17,WNW,285,5.0,-999.0,77,0.00,,,0.00,Wunderground v.1.15,2013-03-14 04:44:00,
2013-03-14 00:50:00,26.2,20.0,30.17,WNW,300,6.0,-999.0,77,0.00,,,0.00,Wunderground v.1.15,2013-03-14 04:50:00,
2013-03-14 00:55:00,26.1,19.9,30.17,WNW,301,6.0,-999.0,77,0.00,,,0.00,Wunderground v.1.15,2013-03-14 04:55:00,
2013-03-14 01:00:00,26.0,19.8,30.17,NW,304,5.0,-999.0,77,0.00,,,0.00,Wunderground v.1.15,2013-03-14 05:00:00,
2013-03-14 01:06:00,25.9,19.7,30.16,West,279,5.0,-999.0,77,0.00,,,0.00,Wunderground v.1.15,2013-03-14 05:06:00,
2013-03-14 01:12:00,25.8,19.6,30.16,NW,304,5.0,-999.0,77,0.00,,,0.00,Wunderground v.1.15,2013-03-14 05:12:00,
2013-03-14 01:18:00,25.8,19.6,30.16,WNW,296,5.0,-999.0,77,0.00,,,0.00,Wunderground v.1.15,2013-03-14 05:18:00,
2013-03-14 01:24:00,25.7,19.5,30.16,WNW,296,5.0,-999.0,77,0.00,,,0.00,Wunderground v.1.15,2013-03-14 05:24:00,
2013-03-14 01:29:00,25.6,19.1,30.16,WNW,298,5.0,-999.0,76,0.00,,,0.00,Wunderground v.1.15,2013-03-14 05:29:00,
2013-03-14 01:35:00,25.6,19.4,30.17,WNW,300,4.0,-999.0,77,0.00,,,0.00,Wunderground v.1.15,2013-03-14 05:35:00,
2013-03-14 01:41:00,25.6,19.1,30.17,WNW,301,5.0,-999.0,76,0.00,,,0.00,Wunderground v.1.15,2013-03-14 05:41:00,
2013-03-14 01:46:00,25.5,19.0,30.17,WNW,295,6.0,-999.0,76,0.00,,,0.00,Wunderground v.1.15,2013-03-14 05:46:00,
2013-03-14 01:52:00,25.4,18.9,30.17,WNW,284,5.0,-999.0,76,0.00,,,0.00,Wunderground v.1.15,2013-03-14 05:52:00,
2013-03-14 01:58:00,25.4,18.9,30.17,NW,306,5.0,-999.0,76,0.00,,,0.00,Wunderground v.1.15,2013-03-14 05:58:00,
2013-03-14 02:03:00,25.3,18.8,30.17,WNW,302,4.0,-999.0,76,0.00,,,0.00,Wunderground v.1.15,2013-03-14 06:03:00,
2013-03-14 02:08:00,25.2,18.7,30.17,WNW,302,3.0,-999.0,76,0.00,,,0.00,Wunderground v.1.15,2013-03-14 06:08:00,
2013-03-14 02:13:00,25.1,18.6,30.17,WNW,296,3.0,-999.0,76,0.00,,,0.00,Wunderground v.1.15,2013-03-14 06:13:00,
2013-03-14 02:19:00,25.2,18.7,30.17,West,269,4.0,-999.0,76,0.00,,,0.00,Wunderground v.1.15,2013-03-14 06:19:00,
2013-03-14 02:25:00,25.1,18.6,30.17,WNW,302,4.0,-999.0,76,0.00,,,0.00,Wunderground v.1.15,2013-03-14 06:25:00,
2013-03-14 02:30:00,25.0,18.5,30.17,WNW,294,3.0,-999.0,76,0.00,,,0.00,Wunderground v.1.15,2013-03-14 06:30:00,
2013-03-14 02:35:00,24.9,18.4,30.17,WNW,297,4.0,-999.0,76,0.00,,,0.00,Wunderground v.1.15,2013-03-14 06:35:00,
2013-03-14 02:41:00,24.9,18.4,30.17,WNW,285,4.0,-999.0,76,0.00,,,0.00,Wunderground v.1.15,2013-03-14 06:41:00,
2013-03-14 02:46:00,24.7,18.2,30.17,WNW,301,3.0,-999.0,76,0.00,,,0.00,Wunderground v.1.15,2013-03-14 06:46:00,
2013-03-14 02:52:00,24.7,18.2,30.17,WNW,292,3.0,-999.0,76,0.00,,,0.00,Wunderground v.1.15,2013-03-14 06:52:00,
2013-03-14 02:58:00,24.6,18.1,30.18,WNW,301,4.0,-999.0,76,0.00,,,0.00,Wunderground v.1.15,2013-03-14 06:58:00,
2013-03-14 03:03:00,24.6,18.1,30.18,WNW,284,3.0,-999.0,76,0.00,,,0.00,Wunderground v.1.15,2013-03-14 07:03:00,
2013-03-14 03:09:00,24.5,18.0,30.18,WNW,290,4.0,-999.0,76,0.00,,,0.00,Wunderground v.1.15,2013-03-14 07:09:00,
2013-03-14 03:15:00,24.5,18.0,30.18,WNW,293,4.0,-999.0,76,0.00,,,0.00,Wunderground v.1.15,2013-03-14 07:15:00,
2013-03-14 03:21:00,24.4,17.9,30.17,WNW,300,3.0,-999.0,76,0.00,,,0.00,Wunderground v.1.15,2013-03-14 07:21:00,
2013-03-14 03:27:00,24.3,17.8,30.17,WNW,291,4.0,-999.0,76,0.00,,,0.00,Wunderground v.1.15,2013-03-14 07:27:00,
2013-03-14 03:33:00,24.3,17.8,30.18,WNW,287,4.0,-999.0,76,0.00,,,0.00,Wunderground v.1.15,2013-03-14 07:33:00,
2013-03-14 03:39:00,24.3,17.8,30.17,WNW,298,4.0,-999.0,76,0.00,,,0.00,Wunderground v.1.15,2013-03-14 07:39:00,
2013-03-14 03:45:00,24.3,17.8,30.18,WNW,294,4.0,-999.0,76,0.00,,,0.00,Wunderground v.1.15,2013-03-14 07:45:00,
2013-03-14 03:50:00,24.2,17.7,30.18,WNW,294,4.0,-999.0,76,0.00,,,0.00,Wunderground v.1.15,2013-03-14 07:50:00,
2013-03-14 03:56:00,24.2,17.7,30.18,WNW,296,4.0,-999.0,76,0.00,,,0.00,Wunderground v.1.15,2013-03-14 07:56:00,
2013-03-14 04:02:00,24.1,17.6,30.18,WNW,289,4.0,-999.0,76,0.00,,,0.00,Wunderground v.1.15,2013-03-14 08:02:00,
2013-03-14 04:08:00,24.1,17.6,30.18,WNW,300,4.0,-999.0,76,0.00,,,0.00,Wunderground v.1.15,2013-03-14 08:08:00,
2013-03-14 04:14:00,24.0,17.5,30.18,WNW,300,4.0,-999.0,76,0.00,,,0.00,Wunderground v.1.15,2013-03-14 08:14:00,
2013-03-14 04:20:00,23.9,17.4,30.18,WSW,257,4.0,-999.0,76,0.00,,,0.00,Wunderground v.1.15,2013-03-14 08:20:00,
2013-03-14 04:26:00,24.0,17.5,30.18,West,271,5.0,-999.0,76,0.00,,,0.00,Wunderground v.1.15,2013-03-14 08:26:00,
2013-03-14 04:32:00,24.0,17.5,30.18,WNW,302,5.0,-999.0,76,0.00,,,0.00,Wunderground v.1.15,2013-03-14 08:32:00,
2013-03-14 04:38:00,23.9,17.4,30.18,WNW,291,4.0,-999.0,76,0.00,,,0.00,Wunderground v.1.15,2013-03-14 08:38:00,
2013-03-14 04:44:00,23.7,17.2,30.18,WNW,289,4.0,-999.0,76,0.00,,,0.00,Wunderground v.1.15,2013-03-14 08:44:00,
2013-03-14 04:50:00,23.6,17.1,30.18,West,281,4.0,-999.0,76,0.00,,,0.00,Wunderground v.1.15,2013-03-14 08:50:00,
2013-03-14 04:55:00,23.6,17.1,30.18,WNW,291,4.0,-999.0,76,0.00,,,0.00,Wunderground v.1.15,2013-03-14 08:55:00,
2013-03-14 05:01:00,23.6,17.4,30.18,West,277,4.0,-999.0,77,0.00,,,0.00,Wunderground v.1.15,2013-03-14 09:01:00,
2013-03-14 05:07:00,23.6,17.4,30.17,WNW,302,4.0,-999.0,77,0.00,,,0.00,Wunderground v.1.15,2013-03-14 09:07:00,
2013-03-14 05:13:00,23.5,17.3,30.18,WNW,294,4.0,-999.0,77,0.00,,,0.00,Wunderground v.1.15,2013-03-14 09:13:00,
2013-03-14 05:18:00,23.5,17.3,30.18,WNW,287,4.0,-999.0,77,0.00,,,0.00,Wunderground v.1.15,2013-03-14 09:18:00,
2013-03-14 05:24:00,23.5,17.3,30.18,WNW,288,4.0,-999.0,77,0.00,,,0.00,Wunderground v.1.15,2013-03-14 09:24:00,
2013-03-14 05:30:00,23.5,17.3,30.18,WNW,301,4.0,-999.0,77,0.00,,,0.00,Wunderground v.1.15,2013-03-14 09:30:00,
2013-03-14 05:36:00,23.4,16.9,30.18,WNW,298,4.0,-999.0,76,0.00,,,0.00,Wunderground v.1.15,2013-03-14 09:36:00,
2013-03-14 05:42:00,23.4,16.9,30.18,West,278,4.0,-999.0,76,0.00,,,0.00,Wunderground v.1.15,2013-03-14 09:42:00,
2013-03-14 05:47:00,23.4,17.3,30.18,WNW,297,4.0,-999.0,77,0.00,,,0.00,Wunderground v.1.15,2013-03-14 09:47:00,
2013-03-14 05:53:00,23.3,16.9,30.18,WNW,295,4.0,-999.0,76,0.00,,,0.00,Wunderground v.1.15,2013-03-14 09:53:00,
2013-03-14 05:59:00,23.3,17.2,30.19,WNW,291,3.0,-999.0,77,0.00,,,0.00,Wunderground v.1.15,2013-03-14 09:59:00,
2013-03-14 06:05:00,23.2,17.1,30.19,WNW,292,3.0,-999.0,77,0.00,,,0.00,Wunderground v.1.15,2013-03-14 10:05:00,
2013-03-14 06:11:00,23.3,17.2,30.19,NW,306,3.0,-999.0,77,0.00,,,0.00,Wunderground v.1.15,2013-03-14 10:11:00,
2013-03-14 06:16:00,23.3,17.2,30.19,WNW,292,3.0,-999.0,77,0.00,,,0.00,Wunderground v.1.15,2013-03-14 10:16:00,
2013-03-14 06:22:00,23.2,17.1,30.19,WNW,294,2.0,-999.0,77,0.00,,,0.00,Wunderground v.1.15,2013-03-14 10:22:00,
2013-03-14 06:28:00,23.3,17.2,30.19,WNW,300,3.0,-999.0,77,0.00,,,0.00,Wunderground v.1.15,2013-03-14 10:28:00,
2013-03-14 06:34:00,23.3,16.9,30.19,NW,322,4.0,-999.0,76,0.00,,,0.00,Wunderground v.1.15,2013-03-14 10:34:00,
2013-03-14 06:39:00,23.3,16.9,30.20,WNW,298,4.0,-999.0,76,0.00,,,0.00,Wunderground v.1.15,2013-03-14 10:39:00,
2013-03-14 06:45:00,23.3,16.9,30.20,WNW,290,4.0,-999.0,76,0.00,,,0.00,Wunderground v.1.15,2013-03-14 10:45:00,
2013-03-14 06:51:00,23.3,16.9,30.20,WNW,288,3.0,-999.0,76,0.00,,,0.00,Wunderground v.1.15,2013-03-14 10:51:00,
2013-03-14 06:56:00,23.3,16.9,30.20,WNW,294,3.0,-999.0,76,0.00,,,0.00,Wunderground v.1.15,2013-03-14 10:56:00,
2013-03-14 07:02:00,23.2,16.8,30.20,WNW,293,2.0,-999.0,76,0.00,,,0.00,Wunderground v.1.15,2013-03-14 11:02:00,
2013-03-14 07:07:00,23.1,16.7,30.20,WNW,293,1.0,-999.0,76,0.00,,,0.00,Wunderground v.1.15,2013-03-14 11:07:00,
2013-03-14 07:13:00,23.1,16.7,30.21,WNW,293,1.0,-999.0,76,0.00,,,0.00,Wunderground v.1.15,2013-03-14 11:13:00,
2013-03-14 07:19:00,22.9,16.5,30.21,WNW,293,1.0,-999.0,76,0.00,,,0.00,Wunderground v.1.15,2013-03-14 11:19:00,
2013-03-14 07:24:00,22.7,16.6,30.21,WNW,293,0.0,-999.0,77,0.00,,,0.00,Wunderground v.1.15,2013-03-14 11:24:00,
2013-03-14 07:29:00,22.6,16.5,30.21,WNW,293,0.0,-999.0,77,0.00,,,0.00,Wunderground v.1.15,2013-03-14 11:29:00,
2013-03-14 07:34:00,22.6,16.5,30.21,WNW,293,0.0,-999.0,77,0.00,,,0.00,Wunderground v.1.15,2013-03-14 11:34:00,
2013-03-14 07:40:00,22.6,16.5,30.21,WNW,293,1.0,-999.0,77,0.00,,,0.00,Wunderground v.1.15,2013-03-14 11:40:00,
2013-03-14 07:46:00,22.6,16.5,30.22,WNW,293,1.0,-999.0,77,0.00,,,0.00,Wunderground v.1.15,2013-03-14 11:46:00,
2013-03-14 07:52:00,22.5,16.4,30.22,WNW,293,1.0,-999.0,77,0.00,,,0.00,Wunderground v.1.15,2013-03-14 11:52:00,
2013-03-14 07:58:00,22.5,16.4,30.22,WNW,293,0.0,-999.0,77,0.00,,,0.00,Wunderground v.1.15,2013-03-14 11:58:00,
2013-03-14 08:03:00,22.4,16.6,30.22,WNW,293,0.0,-999.0,78,0.00,,,0.00,Wunderground v.1.15,2013-03-14 12:03:00,
2013-03-14 08:09:00,22.5,16.7,30.22,WNW,293,1.0,-999.0,78,0.00,,,0.00,Wunderground v.1.15,2013-03-14 12:09:00,
2013-03-14 08:15:00,22.7,16.9,30.22,WNW,293,1.0,-999.0,78,0.00,,,0.00,Wunderground v.1.15,2013-03-14 12:15:00,
2013-03-14 08:21:00,22.9,17.1,30.22,WNW,300,2.0,-999.0,78,0.00,,,0.00,Wunderground v.1.15,2013-03-14 12:21:00,
2013-03-14 08:26:00,23.0,17.2,30.22,WNW,300,2.0,-999.0,78,0.00,,,0.00,Wunderground v.1.15,2013-03-14 12:26:00,
2013-03-14 08:32:00,23.2,17.4,30.22,WNW,303,2.0,-999.0,78,0.00,,,0.00,Wunderground v.1.15,2013-03-14 12:32:00,
2013-03-14 08:38:00,23.4,17.6,30.22,WNW,286,2.0,-999.0,78,0.00,,,0.00,Wunderground v.1.15,2013-03-14 12:38:00,
2013-03-14 08:44:00,23.6,17.7,30.22,WNW,292,2.0,-999.0,78,0.00,,,0.00,Wunderground v.1.15,2013-03-14 12:44:00,
2013-03-14 08:49:00,23.9,18.0,30.22,West,267,2.0,-999.0,78,0.00,,,0.00,Wunderground v.1.15,2013-03-14 12:49:00,
2013-03-14 08:55:00,24.2,18.0,30.22,West,259,3.0,-999.0,77,0.00,,,0.00,Wunderground v.1.15,2013-03-14 12:55:00,
2013-03-14 09:00:00,24.5,18.3,30.22,West,271,3.0,-999.0,77,0.00,,,0.00,Wunderground v.1.15,2013-03-14 13:00:00,
2013-03-14 09:05:00,24.8,18.6,30.23,WSW,250,3.0,-999.0,77,0.00,,,0.00,Wunderground v.1.15,2013-03-14 13:05:00,
2013-03-14 09:11:00,25.1,18.6,30.23,WNW,300,4.0,-999.0,76,0.00,,,0.00,Wunderground v.1.15,2013-03-14 13:11:00,
2013-03-14 09:16:00,25.4,18.9,30.23,West,263,3.0,-999.0,76,0.00,,,0.00,Wunderground v.1.15,2013-03-14 13:16:00,
2013-03-14 09:22:00,25.7,18.9,30.22,WNW,300,4.0,-999.0,75,0.00,,,0.00,Wunderground v.1.15,2013-03-14 13:22:00,
2013-03-14 09:28:00,26.0,19.2,30.22,WSW,249,5.0,-999.0,75,0.00,,,0.00,Wunderground v.1.15,2013-03-14 13:28:00,
2013-03-14 09:34:00,26.3,19.5,30.23,West,261,5.0,-999.0,75,0.00,,,0.00,Wunderground v.1.15,2013-03-14 13:34:00,
2013-03-14 09:40:00,26.7,19.5,30.23,SW,235,5.0,-999.0,74,0.00,,,0.00,Wunderground v.1.15,2013-03-14 13:40:00,
2013-03-14 09:45:00,27.1,19.9,30.23,WNW,295,4.0,-999.0,74,0.00,,,0.00,Wunderground v.1.15,2013-03-14 13:45:00,
2013-03-14 09:50:00,27.4,20.2,30.23,West,261,4.0,-999.0,74,0.00,,,0.00,Wunderground v.1.15,2013-03-14 13:50:00,
2013-03-14 09:56:00,27.8,20.3,30.23,WNW,302,4.0,-999.0,73,0.00,,,0.00,Wunderground v.1.15,2013-03-14 13:56:00,
2013-03-14 10:02:00,28.1,20.2,30.23,WNW,296,3.0,-999.0,72,0.00,,,0.00,Wunderground v.1.15,2013-03-14 14:02:00,
2013-03-14 10:07:00,28.3,20.4,30.23,NW,322,4.0,-999.0,72,0.00,,,0.00,Wunderground v.1.15,2013-03-14 14:07:00,
2013-03-14 10:13:00,28.5,20.3,30.23,WNW,296,4.0,-999.0,71,0.00,,,0.00,Wunderground v.1.15,2013-03-14 14:13:00,
2013-03-14 10:18:00,28.7,20.5,30.23,WNW,294,5.0,-999.0,71,0.00,,,0.00,Wunderground v.1.15,2013-03-14 14:18:00,
2013-03-14 10:24:00,28.8,20.9,30.23,West,279,6.0,-999.0,72,0.00,,,0.00,Wunderground v.1.15,2013-03-14 14:24:00,
2013-03-14 10:29:00,28.9,20.7,30.23,West,272,7.0,-999.0,71,0.00,,,0.00,Wunderground v.1.15,2013-03-14 14:29:00,
2013-03-14 10:35:00,29.3,21.1,30.23,West,274,5.0,-999.0,71,0.00,,,0.00,Wunderground v.1.15,2013-03-14 14:35:00,
2013-03-14 10:41:00,29.6,21.3,30.23,NW,305,5.0,-999.0,71,0.00,,,0.00,Wunderground v.1.15,2013-03-14 14:41:00,
2013-03-14 10:47:00,29.6,21.3,30.23,WNW,303,6.0,-999.0,71,0.00,,,0.00,Wunderground v.1.15,2013-03-14 14:47:00,
2013-03-14 10:52:00,29.9,21.6,30.23,WNW,300,4.0,-999.0,71,0.00,,,0.00,Wunderground v.1.15,2013-03-14 14:52:00,
2013-03-14 10:58:00,30.4,21.8,30.23,WNW,286,5.0,-999.0,70,0.00,,,0.00,Wunderground v.1.15,2013-03-14 14:58:00,
2013-03-14 11:04:00,30.5,21.9,30.23,WNW,292,5.0,-999.0,70,0.00,,,0.00,Wunderground v.1.15,2013-03-14 15:04:00,
2013-03-14 11:10:00,31.3,23.3,30.23,WNW,298,4.0,-999.0,72,0.00,,,0.00,Wunderground v.1.15,2013-03-14 15:10:00,
2013-03-14 11:15:00,31.1,21.8,30.23,WNW,289,5.0,-999.0,68,0.00,,,0.00,Wunderground v.1.15,2013-03-14 15:15:00,
2013-03-14 11:21:00,31.2,21.9,30.23,WNW,298,7.0,-999.0,68,0.00,,,0.00,Wunderground v.1.15,2013-03-14 15:21:00,
2013-03-14 11:27:00,31.4,22.4,30.23,WNW,293,7.0,-999.0,69,0.00,,,0.00,Wunderground v.1.15,2013-03-14 15:27:00,
2013-03-14 11:33:00,31.8,22.8,30.23,West,273,6.0,-999.0,69,0.00,,,0.01,Wunderground v.1.15,2013-03-14 15:33:00,
2013-03-14 11:39:00,32.2,22.8,30.23,West,280,6.0,-999.0,68,0.00,,,0.01,Wunderground v.1.15,2013-03-14 15:39:00,
2013-03-14 11:45:00,32.3,23.6,30.23,NW,315,6.0,-999.0,70,0.00,,,0.01,Wunderground v.1.15,2013-03-14 15:45:00,
2013-03-14 11:51:00,32.9,23.8,30.23,NW,309,3.0,-999.0,69,0.00,,,0.01,Wunderground v.1.15,2013-03-14 15:51:00,
2013-03-14 11:57:00,33.3,23.5,30.23,WNW,291,4.0,-999.0,67,0.00,,,0.01,Wunderground v.1.15,2013-03-14 15:57:00,
2013-03-14 12:03:00,33.5,24.1,30.23,NW,311,5.0,-999.0,68,0.00,,,0.01,Wunderground v.1.15,2013-03-14 16:03:00,
2013-03-14 12:09:00,33.9,24.4,30.23,WNW,294,5.0,-999.0,68,0.00,,,0.01,Wunderground v.1.15,2013-03-14 16:09:00,
2013-03-14 12:14:00,34.1,24.6,30.22,WNW,288,5.0,-999.0,68,0.00,,,0.01,Wunderground v.1.15,2013-03-14 16:14:00,
2013-03-14 12:19:00,33.6,22.3,30.22,West,280,6.0,-999.0,63,0.00,,,0.01,Wunderground v.1.15,2013-03-14 16:19:00,
2013-03-14 12:24:00,33.6,23.1,30.22,West,273,7.0,-999.0,65,0.00,,,0.01,Wunderground v.1.15,2013-03-14 16:24:00,
2013-03-14 12:30:00,33.7,22.8,30.22,WNW,292,6.0,-999.0,64,0.00,,,0.01,Wunderground v.1.15,2013-03-14 16:30:00,
2013-03-14 12:35:00,33.7,23.2,30.21,WNW,288,6.0,-999.0,65,0.00,,,0.01,Wunderground v.1.15,2013-03-14 16:35:00,
2013-03-14 12:41:00,34.7,23.8,30.21,NW,325,5.0,-999.0,64,0.00,,,0.01,Wunderground v.1.15,2013-03-14 16:41:00,
2013-03-14 12:47:00,34.7,24.1,30.21,NW,319,4.0,-999.0,65,0.00,,,0.01,Wunderground v.1.15,2013-03-14 16:47:00,
2013-03-14 12:52:00,35.2,24.2,30.21,NW,316,3.0,-999.0,64,0.00,,,0.01,Wunderground v.1.15,2013-03-14 16:52:00,
2013-03-14 12:58:00,35.5,23.4,30.21,NNW,339,4.0,-999.0,61,0.00,,,0.01,Wunderground v.1.15,2013-03-14 16:58:00,
2013-03-14 13:03:00,35.7,23.9,30.21,WNW,292,6.0,-999.0,62,0.00,,,0.01,Wunderground v.1.15,2013-03-14 17:03:00,
2013-03-14 13:09:00,36.0,23.4,30.21,WNW,296,7.0,-999.0,60,0.00,,,0.01,Wunderground v.1.15,2013-03-14 17:09:00,
2013-03-14 13:15:00,36.1,22.7,30.20,NNW,340,7.0,-999.0,58,0.00,,,0.01,Wunderground v.1.15,2013-03-14 17:15:00,
2013-03-14 13:21:00,36.4,23.4,30.21,NW,314,6.0,-999.0,59,0.00,,,0.01,Wunderground v.1.15,2013-03-14 17:21:00,
2013-03-14 13:27:00,36.7,24.5,30.20,West,280,7.0,-999.0,61,0.00,,,0.01,Wunderground v.1.15,2013-03-14 17:27:00,
2013-03-14 13:33:00,36.5,23.1,30.20,NNE,15,8.0,-999.0,58,0.00,,,0.01,Wunderground v.1.15,2013-03-14 17:33:00,
2013-03-14 13:39:00,36.9,24.3,30.19,West,271,8.0,-999.0,60,0.00,,,0.01,Wunderground v.1.15,2013-03-14 17:39:00,
2013-03-14 13:45:00,36.6,21.9,30.19,WNW,290,9.0,-999.0,55,0.00,,,0.01,Wunderground v.1.15,2013-03-14 17:45:00,
2013-03-14 13:51:00,36.7,24.5,30.19,NW,307,8.0,-999.0,61,0.00,,,0.01,Wunderground v.1.15,2013-03-14 17:51:00,
2013-03-14 13:57:00,37.9,25.6,30.19,WNW,286,6.0,-999.0,61,0.00,,,0.01,Wunderground v.1.15,2013-03-14 17:57:00,
2013-03-14 14:03:00,38.1,22.9,30.19,NW,322,7.0,-999.0,54,0.00,,,0.01,Wunderground v.1.15,2013-03-14 18:03:00,
2013-03-14 14:08:00,37.4,24.0,30.18,NW,315,7.0,-999.0,58,0.00,,,0.01,Wunderground v.1.15,2013-03-14 18:08:00,
2013-03-14 14:14:00,38.2,25.1,30.18,NW,304,6.0,-999.0,59,0.00,,,0.01,Wunderground v.1.15,2013-03-14 18:14:00,
2013-03-14 14:19:00,38.9,24.9,30.18,NW,314,5.0,-999.0,57,0.00,,,0.01,Wunderground v.1.15,2013-03-14 18:19:00,
2013-03-14 14:25:00,39.7,26.1,30.17,NNE,32,4.0,-999.0,58,0.00,,,0.01,Wunderground v.1.15,2013-03-14 18:25:00,
2013-03-14 14:30:00,40.2,24.9,30.17,NW,307,4.0,-999.0,54,0.00,,,0.01,Wunderground v.1.15,2013-03-14 18:30:00,
2013-03-14 14:35:00,39.3,23.1,30.17,WNW,302,6.0,-999.0,52,0.00,,,0.01,Wunderground v.1.15,2013-03-14 18:35:00,
2013-03-14 14:41:00,39.6,24.7,30.17,NW,304,6.0,-999.0,55,0.00,,,0.01,Wunderground v.1.15,2013-03-14 18:41:00,
2013-03-14 14:46:00,38.6,22.5,30.17,WNW,285,6.0,-999.0,52,0.00,,,0.01,Wunderground v.1.15,2013-03-14 18:46:00,
2013-03-14 14:52:00,38.8,24.0,30.16,West,276,6.0,-999.0,55,0.00,,,0.01,Wunderground v.1.15,2013-03-14 18:52:00,
2013-03-14 14:57:00,39.3,23.6,30.16,NW,311,7.0,-999.0,53,0.00,,,0.01,Wunderground v.1.15,2013-03-14 18:57:00,
2013-03-14 15:03:00,38.9,23.7,30.15,NNW,336,8.0,-999.0,54,0.00,,,0.01,Wunderground v.1.15,2013-03-14 19:03:00,
2013-03-14 15:08:00,39.3,25.7,30.15,WNW,303,6.0,-999.0,58,0.00,,,0.01,Wunderground v.1.15,2013-03-14 19:08:00,
2013-03-14 15:14:00,39.4,23.2,30.15,NE,56,4.0,-999.0,52,0.00,,,0.01,Wunderground v.1.15,2013-03-14 19:14:00,
2013-03-14 15:19:00,39.5,23.3,30.15,NW,312,3.0,-999.0,52,0.00,,,0.01,Wunderground v.1.15,2013-03-14 19:19:00,
2013-03-14 15:25:00,39.5,23.8,30.15,WNW,284,3.0,-999.0,53,0.00,,,0.01,Wunderground v.1.15,2013-03-14 19:25:00,
2013-03-14 15:31:00,39.5,24.7,30.15,NW,319,4.0,-999.0,55,0.00,,,0.01,Wunderground v.1.15,2013-03-14 19:31:00,
2013-03-14 15:37:00,39.9,25.0,30.15,NW,304,4.0,-999.0,55,0.00,,,0.01,Wunderground v.1.15,2013-03-14 19:37:00,
2013-03-14 15:42:00,39.7,24.4,30.14,NW,306,2.0,-999.0,54,0.00,,,0.01,Wunderground v.1.15,2013-03-14 19:42:00,
2013-03-14 15:47:00,39.3,23.1,30.14,WNW,303,3.0,-999.0,52,0.00,,,0.01,Wunderground v.1.15,2013-03-14 19:47:00,
2013-03-14 15:52:00,39.0,23.7,30.14,NW,325,4.0,-999.0,54,0.00,,,0.01,Wunderground v.1.15,2013-03-14 19:52:00,
2013-03-14 15:58:00,39.3,23.6,30.14,NW,324,3.0,-999.0,53,0.00,,,0.01,Wunderground v.1.15,2013-03-14 19:58:00,
2013-03-14 16:03:00,39.5,23.8,30.14,WNW,298,2.0,-999.0,53,0.00,,,0.01,Wunderground v.1.15,2013-03-14 20:03:00,
2013-03-14 16:09:00,38.8,22.7,30.14,NW,304,4.0,-999.0,52,0.00,,,0.01,Wunderground v.1.15,2013-03-14 20:09:00,
2013-03-14 16:14:00,39.1,24.3,30.14,NW,304,4.0,-999.0,55,0.00,,,0.01,Wunderground v.1.15,2013-03-14 20:14:00,
2013-03-14 16:20:00,39.1,23.4,30.14,NW,307,4.0,-999.0,53,0.00,,,0.01,Wunderground v.1.15,2013-03-14 20:20:00,
2013-03-14 16:26:00,39.3,23.6,30.14,WNW,292,5.0,-999.0,53,0.00,,,0.01,Wunderground v.1.15,2013-03-14 20:26:00,
2013-03-14 16:32:00,39.5,23.8,30.14,WNW,302,6.0,-999.0,53,0.00,,,0.01,Wunderground v.1.15,2013-03-14 20:32:00,
2013-03-14 16:37:00,39.7,24.0,30.14,WNW,303,4.0,-999.0,53,0.00,,,0.01,Wunderground v.1.15,2013-03-14 20:37:00,
2013-03-14 16:43:00,40.2,23.0,30.14,NW,324,5.0,-999.0,50,0.00,,,0.01,Wunderground v.1.15,2013-03-14 20:43:00,
2013-03-14 16:49:00,39.9,23.7,30.14,West,267,5.0,-999.0,52,0.00,,,0.01,Wunderground v.1.15,2013-03-14 20:49:00,
2013-03-14 16:55:00,40.2,24.0,30.14,NNW,330,4.0,-999.0,52,0.00,,,0.01,Wunderground v.1.15,2013-03-14 20:55:00,
2013-03-14 17:00:00,39.7,22.6,30.14,WNW,303,5.0,-999.0,50,0.00,,,0.01,Wunderground v.1.15,2013-03-14 21:00:00,
2013-03-14 17:06:00,38.8,23.1,30.14,NNE,29,6.0,-999.0,53,0.00,,,0.01,Wunderground v.1.15,2013-03-14 21:06:00,
2013-03-14 17:11:00,39.6,23.9,30.13,NNW,338,5.0,-999.0,53,0.00,,,0.01,Wunderground v.1.15,2013-03-14 21:11:00,
2013-03-14 17:16:00,40.2,24.0,30.14,NW,304,4.0,-999.0,52,0.00,,,0.01,Wunderground v.1.15,2013-03-14 21:16:00,
2013-03-14 17:22:00,40.6,24.8,30.14,NW,316,4.0,-999.0,53,0.00,,,0.01,Wunderground v.1.15,2013-03-14 21:22:00,
2013-03-14 17:28:00,39.9,23.2,30.14,NW,305,4.0,-999.0,51,0.00,,,0.01,Wunderground v.1.15,2013-03-14 21:28:00,
2013-03-14 17:34:00,39.0,23.3,30.14,NW,306,5.0,-999.0,53,0.00,,,0.01,Wunderground v.1.15,2013-03-14 21:34:00,
2013-03-14 17:40:00,38.8,24.0,30.14,WNW,300,4.0,-999.0,55,0.00,,,0.01,Wunderground v.1.15,2013-03-14 21:40:00,
2013-03-14 17:46:00,39.3,23.6,30.14,WNW,288,4.0,-999.0,53,0.00,,,0.01,Wunderground v.1.15,2013-03-14 21:46:00,
2013-03-14 17:52:00,38.9,23.7,30.14,NW,322,4.0,-999.0,54,0.00,,,0.01,Wunderground v.1.15,2013-03-14 21:52:00,
2013-03-14 17:57:00,39.1,23.8,30.14,NW,306,4.0,-999.0,54,0.00,,,0.01,Wunderground v.1.15,2013-03-14 21:57:00,
2013-03-14 18:03:00,39.5,24.2,30.13,NW,313,4.0,-999.0,54,0.00,,,0.01,Wunderground v.1.15,2013-03-14 22:03:00,
2013-03-14 18:09:00,39.4,23.7,30.14,NW,324,3.0,-999.0,53,0.00,,,0.01,Wunderground v.1.15,2013-03-14 22:09:00,
2013-03-14 18:14:00,39.0,23.3,30.14,NNW,333,4.0,-999.0,53,0.00,,,0.01,Wunderground v.1.15,2013-03-14 22:14:00,
2013-03-14 18:20:00,38.9,23.7,30.13,NE,34,4.0,-999.0,54,0.00,,,0.01,Wunderground v.1.15,2013-03-14 22:20:00,
2013-03-14 18:26:00,38.9,23.2,30.14,NW,311,4.0,-999.0,53,0.00,,,0.01,Wunderground v.1.15,2013-03-14 22:26:00,
2013-03-14 18:32:00,38.6,23.8,30.13,NW,308,4.0,-999.0,55,0.00,,,0.01,Wunderground v.1.15,2013-03-14 22:32:00,
2013-03-14 18:38:00,38.5,24.1,30.13,WNW,302,2.0,-999.0,56,0.00,,,0.01,Wunderground v.1.15,2013-03-14 22:38:00,
2013-03-14 18:44:00,38.2,23.9,30.13,WNW,299,3.0,-999.0,56,0.00,,,0.01,Wunderground v.1.15,2013-03-14 22:44:00,
2013-03-14 18:49:00,38.1,24.2,30.13,NW,304,3.0,-999.0,57,0.00,,,0.01,Wunderground v.1.15,2013-03-14 22:49:00,
2013-03-14 18:55:00,38.0,24.1,30.13,NW,312,2.0,-999.0,57,0.00,,,0.01,Wunderground v.1.15,2013-03-14 22:55:00,
2013-03-14 19:01:00,37.8,23.9,30.13,NW,311,2.0,-999.0,57,0.00,,,0.01,Wunderground v.1.15,2013-03-14 23:01:00,
2013-03-14 19:07:00,37.5,23.6,30.14,NW,307,1.0,-999.0,57,0.00,,,0.01,Wunderground v.1.15,2013-03-14 23:07:00,
2013-03-14 19:12:00,37.1,23.7,30.14,NW,312,1.0,-999.0,58,0.00,,,0.01,Wunderground v.1.15,2013-03-14 23:12:00,
2013-03-14 19:18:00,36.8,23.4,30.14,NW,311,2.0,-999.0,58,0.00,,,0.01,Wunderground v.1.15,2013-03-14 23:18:00,
2013-03-14 19:23:00,36.5,23.5,30.14,NW,312,1.0,-999.0,59,0.00,,,0.01,Wunderground v.1.15,2013-03-14 23:23:00,
2013-03-14 19:28:00,36.2,23.6,30.14,NW,312,0.0,-999.0,60,0.00,,,0.01,Wunderground v.1.15,2013-03-14 23:28:00,
2013-03-14 19:33:00,35.9,23.7,30.14,NW,312,0.0,-999.0,61,0.00,,,0.01,Wunderground v.1.15,2013-03-14 23:33:00,
2013-03-14 19:39:00,35.6,23.5,30.14,NW,312,1.0,-999.0,61,0.00,,,0.01,Wunderground v.1.15,2013-03-14 23:39:00,
2013-03-14 19:45:00,35.3,23.6,30.13,NW,312,0.0,-999.0,62,0.00,,,0.01,Wunderground v.1.15,2013-03-14 23:45:00,
2013-03-14 19:50:00,35.0,23.7,30.13,NW,312,0.0,-999.0,63,0.00,,,0.01,Wunderground v.1.15,2013-03-14 23:50:00,
2013-03-14 19:56:00,34.8,23.5,30.14,NW,312,0.0,-999.0,63,0.00,,,0.01,Wunderground v.1.15,2013-03-14 23:56:00,
2013-03-14 20:02:00,34.7,23.8,30.14,NW,312,0.0,-999.0,64,0.00,,,0.01,Wunderground v.1.15,2013-03-15 00:02:00,
2013-03-14 20:07:00,34.4,23.5,30.14,NW,312,0.0,-999.0,64,0.00,,,0.01,Wunderground v.1.15,2013-03-15 00:07:00,
2013-03-14 20:13:00,33.8,23.3,30.13,NW,312,0.0,-999.0,65,0.00,,,0.01,Wunderground v.1.15,2013-03-15 00:13:00,
2013-03-14 20:19:00,33.3,23.9,30.13,NW,312,0.0,-999.0,68,0.00,,,0.01,Wunderground v.1.15,2013-03-15 00:19:00,
2013-03-14 20:25:00,32.7,23.6,30.13,NW,312,0.0,-999.0,69,0.00,,,0.01,Wunderground v.1.15,2013-03-15 00:25:00,
2013-03-14 20:30:00,32.2,23.5,30.13,NW,312,0.0,-999.0,70,0.00,,,0.01,Wunderground v.1.15,2013-03-15 00:30:00,
2013-03-14 20:36:00,31.7,23.4,30.13,NW,312,0.0,-999.0,71,0.00,,,0.01,Wunderground v.1.15,2013-03-15 00:36:00,
2013-03-14 20:42:00,31.2,22.9,30.13,NW,312,0.0,-999.0,71,0.00,,,0.01,Wunderground v.1.15,2013-03-15 00:42:00,
2013-03-14 20:48:00,30.9,22.9,30.13,NW,312,0.0,-999.0,72,0.00,,,0.01,Wunderground v.1.15,2013-03-15 00:48:00,
2013-03-14 20:54:00,30.5,22.9,30.13,NW,312,0.0,-999.0,73,0.00,,,0.01,Wunderground v.1.15,2013-03-15 00:54:00,
2013-03-14 21:00:00,30.2,22.9,30.13,NW,312,0.0,-999.0,74,0.00,,,0.01,Wunderground v.1.15,2013-03-15 01:00:00,
2013-03-14 21:06:00,29.8,22.8,30.13,NW,312,0.0,-999.0,75,0.00,,,0.01,Wunderground v.1.15,2013-03-15 01:06:00,
2013-03-14 21:12:00,29.4,22.8,30.13,NW,312,0.0,-999.0,76,0.00,,,0.01,Wunderground v.1.15,2013-03-15 01:12:00,
2013-03-14 21:17:00,29.2,22.9,30.13,NW,312,0.0,-999.0,77,0.00,,,0.01,Wunderground v.1.15,2013-03-15 01:17:00,
2013-03-14 21:23:00,28.8,22.5,30.13,NW,312,0.0,-999.0,77,0.00,,,0.01,Wunderground v.1.15,2013-03-15 01:23:00,
2013-03-14 21:29:00,28.6,22.3,30.13,NW,312,0.0,-999.0,77,0.00,,,0.01,Wunderground v.1.15,2013-03-15 01:29:00,
2013-03-14 21:35:00,28.3,22.3,30.13,NW,312,0.0,-999.0,78,0.00,,,0.01,Wunderground v.1.15,2013-03-15 01:35:00,
2013-03-14 21:40:00,28.1,22.1,30.14,NW,312,0.0,-999.0,78,0.00,,,0.01,Wunderground v.1.15,2013-03-15 01:40:00,
2013-03-14 21:46:00,27.8,22.1,30.14,NW,312,0.0,-999.0,79,0.00,,,0.01,Wunderground v.1.15,2013-03-15 01:46:00,
2013-03-14 21:52:00,27.6,22.2,30.14,NW,312,0.0,-999.0,80,0.00,,,0.01,Wunderground v.1.15,2013-03-15 01:52:00,
2013-03-14 21:58:00,27.5,22.4,30.14,NW,312,0.0,-999.0,81,0.00,,,0.01,Wunderground v.1.15,2013-03-15 01:58:00,
2013-03-14 22:04:00,27.4,22.3,30.14,NW,312,0.0,-999.0,81,0.00,,,0.01,Wunderground v.1.15,2013-03-15 02:04:00,
2013-03-14 22:09:00,27.2,22.1,30.14,NW,312,0.0,-999.0,81,0.00,,,0.01,Wunderground v.1.15,2013-03-15 02:09:00,
2013-03-14 22:15:00,27.0,22.2,30.13,NW,312,0.0,-999.0,82,0.00,,,0.01,Wunderground v.1.15,2013-03-15 02:15:00,
2013-03-14 22:20:00,26.9,22.1,30.14,NW,312,0.0,-999.0,82,0.00,,,0.01,Wunderground v.1.15,2013-03-15 02:20:00,
2013-03-14 22:26:00,26.7,21.9,30.13,NW,312,0.0,-999.0,82,0.00,,,0.01,Wunderground v.1.15,2013-03-15 02:26:00,
2013-03-14 22:32:00,26.5,22.0,30.13,NW,312,0.0,-999.0,83,0.00,,,0.01,Wunderground v.1.15,2013-03-15 02:32:00,
2013-03-14 22:38:00,26.4,21.9,30.13,NW,312,0.0,-999.0,83,0.00,,,0.01,Wunderground v.1.15,2013-03-15 02:38:00,
2013-03-14 22:44:00,26.3,21.8,30.13,NW,312,0.0,-999.0,83,0.00,,,0.01,Wunderground v.1.15,2013-03-15 02:44:00,
2013-03-14 22:50:00,26.2,22.0,30.13,NW,312,0.0,-999.0,84,0.00,,,0.01,Wunderground v.1.15,2013-03-15 02:50:00,
2013-03-14 22:56:00,26.1,22.2,30.12,NW,312,0.0,-999.0,85,0.00,,,0.01,Wunderground v.1.15,2013-03-15 02:56:00,
2013-03-14 23:02:00,26.0,22.1,30.12,NW,312,0.0,-999.0,85,0.00,,,0.01,Wunderground v.1.15,2013-03-15 03:02:00,
2013-03-14 23:08:00,25.8,23.8,30.11,NW,312,0.0,-999.0,92,0.00,,,0.01,Wunderground v.1.15,2013-03-15 03:08:00,
2013-03-14 23:14:00,25.7,21.8,30.12,NW,312,0.0,-999.0,85,0.00,,,0.01,Wunderground v.1.15,2013-03-15 03:14:00,
2013-03-14 23:20:00,25.6,22.0,30.11,NW,312,0.0,-999.0,86,0.00,,,0.01,Wunderground v.1.15,2013-03-15 03:20:00,
2013-03-14 23:25:00,25.4,21.8,30.12,NW,312,0.0,-999.0,86,0.00,,,0.01,Wunderground v.1.15,2013-03-15 03:25:00,
2013-03-14 23:31:00,25.3,21.7,30.12,NW,312,0.0,-999.0,86,0.00,,,0.01,Wunderground v.1.15,2013-03-15 03:31:00,
2013-03-14 23:37:00,25.2,21.6,30.12,NW,312,0.0,-999.0,86,0.00,,,0.01,Wunderground v.1.15,2013-03-15 03:37:00,
2013-03-14 23:43:00,25.2,21.6,30.12,NW,312,0.0,-999.0,86,0.00,,,0.01,Wunderground v.1.15,2013-03-15 03:43:00,
2013-03-14 23:49:00,25.1,21.5,30.12,NW,312,0.0,-999.0,86,0.00,,,0.01,Wunderground v.1.15,2013-03-15 03:49:00,
2013-03-14 23:55:00,25.0,21.4,30.12,NW,312,0.0,-999.0,86,0.00,,,0.01,Wunderground v.1.15,2013-03-15 03:55:00,